Time;durP1;ratioP1;P1;durP2;ratioP2;P2;SDS_P1;SDS_P2;PMS_P1;PMS_P2;Temp;Humidity;BMP_temperature;BMP_pressure;BME280_temperature;BME280_humidity;BME280_pressure;Samples;Min_cycle;Max_cycle;Signal;HPM_P1;HPM_P2
2022/09/04 00:01:22;;;;;;;4.85;1.50;;;23.20;67.40;;;;;;5092129;28;20044;-78
2022/09/04 00:03:55;;;;;;;1.80;1.40;;;23.20;67.40;;;;;;5093076;28;20023;-78
2022/09/04 00:06:25;;;;;;;2.97;1.70;;;23.20;67.40;;;;;;5075709;28;20021;-78
2022/09/04 00:09:11;;;;;;;2.92;1.60;;;23.20;67.40;;;;;;5075413;28;20392;-78
2022/09/04 00:11:46;;;;;;;3.35;1.70;;;23.20;67.40;;;;;;5091961;28;20481;-78
2022/09/04 00:14:20;;;;;;;3.13;1.40;;;23.20;67.40;;;;;;5058708;28;20028;-78
2022/09/04 00:16:49;;;;;;;1.50;1.40;;;23.20;67.40;;;;;;5075233;28;20414;-79
2022/09/04 00:19:21;;;;;;;3.38;1.40;;;23.20;67.60;;;;;;5092702;28;20024;-78
2022/09/04 00:21:52;;;;;;;5.83;1.57;;;23.20;67.50;;;;;;5092903;28;20051;-78
2022/09/04 00:24:23;;;;;;;1.67;1.27;;;23.20;67.50;;;;;;5091489;28;20020;-78
2022/09/04 00:27:02;;;;;;;2.45;1.60;;;23.20;67.50;;;;;;5058475;28;20668;-78
2022/09/04 00:29:37;;;;;;;2.65;1.60;;;23.20;67.50;;;;;;5091627;28;20027;-77
2022/09/04 00:32:09;;;;;;;1.95;1.70;;;23.20;67.60;;;;;;5092568;28;20097;-78
2022/09/04 00:35:20;;;;;;;3.78;1.63;;;23.20;67.70;;;;;;5091780;28;20107;-78
2022/09/04 00:38:01;;;;;;;1.40;1.30;;;23.20;67.50;;;;;;5033671;28;20040;-78
2022/09/04 00:41:17;;;;;;;3.70;1.67;;;23.20;67.60;;;;;;5029567;28;20041;-78
2022/09/04 00:43:55;;;;;;;1.52;1.30;;;23.20;67.50;;;;;;4933025;29;20031;-79
2022/09/04 00:46:46;;;;;;;1.90;1.30;;;23.20;67.60;;;;;;4917141;29;20039;-78
2022/09/04 00:49:24;;;;;;;2.97;1.60;;;23.20;67.60;;;;;;4933085;29;20047;-78
2022/09/04 00:52:18;;;;;;;2.65;1.45;;;23.20;67.60;;;;;;4932933;29;20036;-78
2022/09/04 00:54:49;;;;;;;2.13;1.33;;;23.20;67.60;;;;;;4919703;29;20050;-78
2022/09/04 00:58:08;;;;;;;2.42;1.40;;;23.20;67.60;;;;;;4917075;29;20032;-78
2022/09/04 01:00:35;;;;;;;1.77;1.20;;;23.20;67.50;;;;;;4895250;29;20048;-78
2022/09/04 01:03:06;;;;;;;1.42;1.33;;;23.20;67.60;;;;;;4894973;29;20048;-78
2022/09/04 01:05:55;;;;;;;4.57;1.50;;;23.20;67.60;;;;;;4894980;29;20035;-78
2022/09/04 01:08:23;;;;;;;2.38;1.40;;;23.20;67.60;;;;;;4894930;29;20135;-78
2022/09/04 01:11:01;;;;;;;3.25;1.30;;;23.20;67.60;;;;;;4895246;29;20032;-78
2022/09/04 01:13:40;;;;;;;2.35;1.40;;;23.20;67.60;;;;;;4900460;29;20037;-78
2022/09/04 01:16:29;;;;;;;2.08;1.42;;;23.20;67.50;;;;;;4898420;29;20020;-78
2022/09/04 01:19:11;;;;;;;3.42;1.33;;;23.20;67.60;;;;;;4925357;28;20104;-78
2022/09/04 01:22:01;;;;;;;2.85;1.42;;;23.20;67.70;;;;;;4976508;28;20034;-78
2022/09/04 01:25:07;;;;;;;2.55;1.60;;;23.20;67.70;;;;;;4975266;28;20030;-78
2022/09/04 01:27:53;;;;;;;2.38;1.13;;;23.20;67.70;;;;;;4976538;28;20073;-78
2022/09/04 01:30:19;;;;;;;3.60;1.40;;;23.20;67.70;;;;;;4990355;28;20026;-78
2022/09/04 01:33:09;;;;;;;1.95;1.40;;;23.20;67.70;;;;;;4958494;28;20033;-78
2022/09/04 01:35:47;;;;;;;3.47;1.58;;;23.20;67.70;;;;;;5070542;28;20052;-79
2022/09/04 01:38:24;;;;;;;3.75;1.45;;;23.20;67.70;;;;;;5054482;28;20063;-78
2022/09/04 01:41:06;;;;;;;2.22;1.50;;;23.20;67.80;;;;;;5060469;28;20571;-78
2022/09/04 01:43:32;;;;;;;2.47;1.13;;;23.20;67.80;;;;;;5086270;28;20098;-78
2022/09/04 01:46:20;;;;;;;2.72;1.55;;;23.20;67.80;;;;;;5070475;28;20696;-78
2022/09/04 01:49:09;;;;;;;3.83;1.40;;;23.20;67.80;;;;;;5087621;28;20032;-78
2022/09/04 01:52:09;;;;;;;1.75;1.25;;;23.20;67.80;;;;;;5087499;28;20029;-78
2022/09/04 01:54:57;;;;;;;2.15;1.25;;;23.20;67.70;;;;;;5088612;28;20035;-78
2022/09/04 01:57:25;;;;;;;2.88;1.38;;;23.20;67.80;;;;;;5075278;28;20028;-78
2022/09/04 02:00:01;;;;;;;1.60;1.30;;;23.20;67.70;;;;;;5075282;28;20028;-78
2022/09/04 02:02:28;;;;;;;2.42;1.30;;;23.20;67.80;;;;;;5090829;28;20016;-78
2022/09/04 02:05:05;;;;;;;2.67;1.15;;;23.20;67.80;;;;;;5090962;28;20026;-78
2022/09/04 02:07:46;;;;;;;6.03;1.35;;;23.20;67.80;;;;;;5075068;28;20032;-78
2022/09/04 02:10:20;;;;;;;1.92;1.30;;;23.20;67.80;;;;;;5073700;28;20060;-78
2022/09/04 02:13:13;;;;;;;1.52;1.17;;;23.20;67.70;;;;;;5090155;28;20029;-78
2022/09/04 02:15:57;;;;;;;2.42;1.52;;;23.20;67.80;;;;;;5090370;28;20033;-79
2022/09/04 02:19:00;;;;;;;1.88;1.35;;;23.20;67.80;;;;;;5074697;28;20032;-78
2022/09/04 02:21:35;;;;;;;;;;;23.20;67.80;;;;;;5075418;28;20024;-78
2022/09/04 02:24:19;;;;;;;1.67;1.23;;;23.20;67.80;;;;;;5073504;28;19988;-78
2022/09/04 02:27:15;;;;;;;2.75;1.30;;;23.20;67.90;;;;;;5090616;28;20021;-78
2022/09/04 02:29:45;;;;;;;3.92;1.50;;;23.20;67.80;;;;;;5073386;28;20497;-78
2022/09/04 02:32:26;;;;;;;2.15;1.10;;;23.20;67.90;;;;;;5073474;28;20028;-78
2022/09/04 02:35:01;;;;;;;2.70;1.40;;;23.20;67.80;;;;;;5056792;28;20036;-78
2022/09/04 02:37:48;;;;;;;2.08;1.30;;;23.20;68.00;;;;;;5090234;28;20111;-78
2022/09/04 02:40:31;;;;;;;1.65;1.48;;;23.20;67.90;;;;;;5079453;28;20460;-78
2022/09/04 02:43:12;;;;;;;;;;;23.20;67.90;;;;;;5077134;28;20020;-79
2022/09/04 02:46:06;;;;;;;2.97;1.27;;;23.20;67.80;;;;;;5094718;28;19904;-78
2022/09/04 02:49:08;;;;;;;3.03;1.33;;;23.20;67.80;;;;;;5034991;28;20131;-78
2022/09/04 02:51:44;;;;;;;1.90;1.30;;;23.20;67.90;;;;;;5052134;28;20492;-78
2022/09/04 02:54:13;;;;;;;2.67;1.42;;;23.20;67.90;;;;;;5036336;28;20536;-78
2022/09/04 02:57:00;;;;;;;2.97;1.23;;;23.20;67.90;;;;;;5052198;28;20029;-78
2022/09/04 03:00:04;;;;;;;2.65;1.30;;;23.20;67.90;;;;;;5035350;28;20028;-78
2022/09/04 03:03:00;;;;;;;3.22;1.35;;;23.20;67.90;;;;;;5019039;28;20032;-78
2022/09/04 03:05:32;;;;;;;2.85;1.08;;;23.20;67.90;;;;;;5034589;28;20448;-78
2022/09/04 03:08:05;;;;;;;1.85;1.35;;;23.20;67.90;;;;;;5036003;28;20508;-79
2022/09/04 03:10:41;;;;;;;1.50;1.27;;;23.20;67.90;;;;;;5035819;28;20035;-79
2022/09/04 03:13:21;;;;;;;2.15;1.30;;;23.20;67.90;;;;;;5036378;28;20036;-78
2022/09/04 03:16:14;;;;;;;3.40;1.67;;;23.20;67.90;;;;;;5036252;28;20024;-78
2022/09/04 03:19:00;;;;;;;;;;;23.20;67.90;;;;;;5038232;28;20601;-78
2022/09/04 03:21:34;;;;;;;2.35;1.25;;;23.20;67.90;;;;;;5051553;28;19908;-78
2022/09/04 03:24:04;;;;;;;1.50;1.40;;;23.20;68.00;;;;;;5035248;28;20025;-78
2022/09/04 03:26:38;;;;;;;2.33;1.33;;;23.20;68.00;;;;;;5073532;28;20410;-78
2022/09/04 03:29:13;;;;;;;3.28;1.30;;;23.10;67.90;;;;;;5076522;28;20020;-78
2022/09/04 03:32:11;;;;;;;2.13;1.35;;;23.20;68.00;;;;;;5093697;28;20050;-78
2022/09/04 03:34:54;;;;;;;4.63;1.77;;;23.20;67.90;;;;;;5031335;28;20501;-79
2022/09/04 03:37:47;;;;;;;4.15;1.70;;;23.20;67.90;;;;;;5031301;28;20120;-78
2022/09/04 03:40:35;;;;;;;2.90;1.15;;;23.20;67.90;;;;;;5014396;28;20057;-78
2022/09/04 03:43:10;;;;;;;3.08;1.65;;;23.20;68.00;;;;;;5014799;28;20067;-78
2022/09/04 03:46:14;;;;;;;1.73;1.20;;;23.10;67.90;;;;;;5031207;28;20052;-78
2022/09/04 03:48:59;;;;;;;3.67;1.27;;;23.20;67.90;;;;;;4991496;28;20042;-78
2022/09/04 03:51:48;;;;;;;1.45;1.25;;;23.20;68.00;;;;;;4991594;28;20124;-78
2022/09/04 03:54:58;;;;;;;2.00;1.35;;;23.10;67.90;;;;;;4991763;28;20069;-79
2022/09/04 03:58:00;;;;;;;4.38;1.58;;;23.20;68.00;;;;;;4972170;28;20565;-79
2022/09/04 04:00:26;;;;;;;3.60;1.48;;;23.10;68.00;;;;;;4961740;28;20046;-79
2022/09/04 04:03:10;;;;;;;8.70;1.50;;;23.20;68.00;;;;;;4972126;28;20041;-78
2022/09/04 04:06:15;;;;;;;3.92;1.38;;;23.10;68.00;;;;;;4971703;28;20067;-78
2022/09/04 04:09:22;;;;;;;1.95;1.30;;;23.20;68.00;;;;;;4914490;29;20408;-79
2022/09/04 04:12:01;;;;;;;3.40;1.30;;;23.20;68.00;;;;;;4898852;29;20469;-78
2022/09/04 04:14:39;;;;;;;1.48;1.10;;;23.20;68.00;;;;;;4914385;29;20425;-78
2022/09/04 04:17:27;;;;;;;1.23;1.10;;;23.10;68.00;;;;;;4897840;29;20131;-78
2022/09/04 04:20:05;;;;;;;3.33;1.98;;;23.20;68.00;;;;;;4914350;29;20040;-78
2022/09/04 04:23:04;;;;;;;2.85;1.50;;;23.10;68.00;;;;;;4914319;29;20132;-78
2022/09/04 04:26:05;;;;;;;3.35;1.38;;;23.20;68.00;;;;;;4943277;28;20046;-78
2022/09/04 04:29:08;;;;;;;3.38;1.42;;;23.20;68.00;;;;;;4955614;28;20042;-78
2022/09/04 04:32:03;;;;;;;1.48;1.38;;;23.20;68.00;;;;;;4971694;28;20042;-78
2022/09/04 04:34:47;;;;;;;1.98;1.40;;;23.10;67.90;;;;;;4995169;28;20096;-78
2022/09/04 04:37:33;;;;;;;2.85;1.35;;;23.20;68.10;;;;;;4996493;28;20046;-78
2022/09/04 04:40:29;;;;;;;2.45;1.52;;;23.10;68.00;;;;;;4995934;28;20521;-78
2022/09/04 04:43:00;;;;;;;2.33;1.30;;;23.10;68.00;;;;;;5047118;28;20033;-78
2022/09/04 04:45:49;;;;;;;2.90;1.45;;;23.10;68.00;;;;;;5038108;28;20016;-78
2022/09/04 04:48:28;;;;;;;2.42;1.40;;;23.20;68.10;;;;;;5041133;28;20059;-78
2022/09/04 04:51:21;;;;;;;3.35;1.30;;;23.10;68.00;;;;;;5072165;28;20020;-78
2022/09/04 04:54:12;;;;;;;2.83;1.40;;;23.10;67.90;;;;;;5072240;28;20020;-78
2022/09/04 04:56:44;;;;;;;1.48;1.20;;;23.10;67.90;;;;;;5071204;28;20082;-78
2022/09/04 04:59:32;;;;;;;1.95;1.52;;;23.20;68.00;;;;;;5070929;28;20028;-78
2022/09/04 05:02:29;;;;;;;3.38;1.40;;;23.10;68.00;;;;;;5072439;28;20021;-78
2022/09/04 05:04:56;;;;;;;2.75;1.20;;;23.10;68.00;;;;;;5072047;28;20025;-78
2022/09/04 05:07:51;;;;;;;2.00;1.17;;;23.20;68.10;;;;;;5070857;28;20024;-79
2022/09/04 05:10:23;;;;;;;2.40;1.10;;;23.10;68.00;;;;;;5071987;28;20031;-78
2022/09/04 05:12:52;;;;;;;;;;;23.10;68.00;;;;;;5071446;28;20043;-79
2022/09/04 05:15:18;;;;;;;2.47;1.20;;;23.10;68.00;;;;;;5070925;28;19909;-78
2022/09/04 05:17:55;;;;;;;1.83;1.15;;;23.10;68.00;;;;;;5072034;28;20438;-78
2022/09/04 05:20:35;;;;;;;3.65;1.08;;;23.10;68.00;;;;;;5054737;28;20017;-78
2022/09/04 05:23:21;;;;;;;2.22;1.48;;;23.10;68.00;;;;;;5055463;28;20059;-78
2022/09/04 05:26:17;;;;;;;3.00;1.48;;;23.10;67.90;;;;;;5071921;28;20023;-78
2022/09/04 05:28:49;;;;;;;1.92;1.45;;;23.10;67.90;;;;;;5075277;28;20025;-78
2022/09/04 05:31:25;;;;;;;2.05;1.30;;;23.10;68.00;;;;;;5076040;28;20028;-77
2022/09/04 05:34:28;;;;;;;6.65;1.40;;;23.10;68.00;;;;;;5074451;28;20029;-78
2022/09/04 05:37:13;;;;;;;3.13;1.10;;;23.10;68.00;;;;;;5075894;28;20109;-78
2022/09/04 05:39:51;;;;;;;3.00;1.10;;;23.10;68.00;;;;;;5074671;28;20039;-78
2022/09/04 05:42:36;;;;;;;3.20;1.20;;;23.10;68.00;;;;;;5078667;28;20012;-78
2022/09/04 05:45:17;;;;;;;2.70;1.15;;;23.10;68.10;;;;;;5096032;28;20024;-78
2022/09/04 05:48:12;;;;;;;3.08;1.50;;;23.10;68.00;;;;;;5095272;28;20400;-78
2022/09/04 05:50:59;;;;;;;4.65;1.40;;;23.10;68.00;;;;;;5094698;28;20024;-77
2022/09/04 05:53:40;;;;;;;2.65;1.38;;;23.10;68.00;;;;;;5095815;28;20547;-78
2022/09/04 05:56:27;;;;;;;2.50;1.30;;;23.10;68.00;;;;;;5095876;28;20051;-78
2022/09/04 05:59:19;;;;;;;3.03;1.20;;;23.10;68.00;;;;;;5077300;28;20028;-78
2022/09/04 06:02:00;;;;;;;1.40;0.90;;;23.10;68.00;;;;;;5052815;28;20055;-78
2022/09/04 06:04:26;;;;;;;2.70;1.30;;;23.10;68.00;;;;;;5053009;28;20025;-78
2022/09/04 06:06:54;;;;;;;4.78;1.35;;;23.10;68.20;;;;;;5036243;28;20060;-78
2022/09/04 06:09:35;;;;;;;3.10;1.30;;;23.10;68.10;;;;;;5053067;28;20527;-78
2022/09/04 06:12:34;;;;;;;1.92;1.10;;;23.10;68.10;;;;;;5052913;28;20067;-78
2022/09/04 06:15:02;;;;;;;3.10;1.70;;;23.10;68.10;;;;;;5053002;28;20087;-78
2022/09/04 06:17:29;;;;;;;2.35;1.40;;;23.10;69.20;;;;;;5034699;28;20025;-78
2022/09/04 06:20:16;;;;;;;1.90;1.30;;;23.10;68.10;;;;;;5053963;28;20515;-78
2022/09/04 06:23:05;;;;;;;6.15;1.45;;;23.10;68.20;;;;;;5058489;28;20025;-79
2022/09/04 06:25:53;;;;;;;4.60;1.45;;;23.10;68.20;;;;;;5048830;28;20040;-77
2022/09/04 06:28:39;;;;;;;2.45;1.50;;;23.10;68.30;;;;;;5073161;28;20054;-78
2022/09/04 06:31:04;;;;;;;5.45;1.52;;;23.10;68.30;;;;;;5072953;28;20033;-77
2022/09/04 06:33:40;;;;;;;2.08;1.50;;;23.10;68.40;;;;;;5072948;28;20054;-77
2022/09/04 06:36:12;;;;;;;3.55;1.45;;;23.10;69.30;;;;;;5036995;28;20028;-77
2022/09/04 06:38:43;;;;;;;5.03;1.70;;;23.10;68.40;;;;;;5044000;28;20060;-77
2022/09/04 06:41:37;;;;;;;7.35;1.73;;;23.10;68.40;;;;;;5086594;28;20035;-78
2022/09/04 06:44:32;;;;;;;3.03;1.00;;;23.10;68.30;;;;;;5094247;28;20472;-78
2022/09/04 06:47:09;;;;;;;2.60;1.48;;;23.10;68.40;;;;;;5093682;28;20055;-78
2022/09/04 06:49:57;;;;;;;5.70;1.70;;;23.10;68.50;;;;;;5093830;28;20020;-78
2022/09/04 06:52:29;;;;;;;3.47;1.30;;;23.10;68.50;;;;;;5094840;28;20035;-78
2022/09/04 06:55:13;;;;;;;5.40;1.38;;;23.10;68.50;;;;;;5094973;28;20023;-77
2022/09/04 06:57:55;;;;;;;4.55;1.42;;;23.10;68.50;;;;;;5078425;28;20067;-78
2022/09/04 07:00:22;;;;;;;5.72;1.15;;;23.10;68.50;;;;;;5092783;28;20035;-77
2022/09/04 07:03:13;;;;;;;3.35;1.27;;;23.10;68.50;;;;;;5076503;28;20032;-77
2022/09/04 07:06:01;;;;;;;2.85;1.70;;;23.10;68.50;;;;;;5093411;28;20024;-79
2022/09/04 07:08:53;;;;;;;2.92;1.27;;;23.10;68.30;;;;;;5093396;28;20032;-77
2022/09/04 07:11:29;;;;;;;1.67;1.10;;;23.20;68.40;;;;;;5093351;28;20503;-78
2022/09/04 07:14:43;;;;;;;8.07;1.85;;;23.10;68.40;;;;;;5092899;28;20024;-78
2022/09/04 07:17:18;;;;;;;5.63;1.88;;;23.10;68.40;;;;;;5071759;28;20040;-77
2022/09/04 07:20:04;;;;;;;7.78;1.77;;;23.10;68.50;;;;;;5092831;28;20066;-78
2022/09/04 07:22:48;;;;;;;5.47;1.40;;;23.20;68.50;;;;;;5051913;28;20115;-78
2022/09/04 07:25:33;;;;;;;4.00;1.40;;;23.10;68.50;;;;;;5037245;28;20037;-77
2022/09/04 07:28:28;;;;;;;2.40;1.45;;;23.10;68.50;;;;;;5036708;28;20033;-77
2022/09/04 07:31:14;;;;;;;3.92;1.45;;;23.10;68.50;;;;;;5038310;28;20025;-77
2022/09/04 07:34:11;;;;;;;3.47;1.55;;;23.20;68.60;;;;;;5027936;28;20412;-78
2022/09/04 07:36:55;;;;;;;2.65;1.30;;;23.20;68.60;;;;;;5032136;28;20030;-77
2022/09/04 07:39:37;;;;;;;5.38;1.60;;;23.20;68.60;;;;;;5037388;28;20524;-77
2022/09/04 07:42:16;;;;;;;4.63;1.27;;;23.10;68.60;;;;;;4995462;28;20041;-77
2022/09/04 07:44:53;;;;;;;4.03;1.38;;;23.10;68.60;;;;;;4979320;28;20034;-76
2022/09/04 07:47:45;;;;;;;3.40;1.30;;;23.10;68.60;;;;;;4995831;28;20054;-77
2022/09/04 07:50:18;;;;;;;1.88;0.95;;;23.10;68.60;;;;;;4995314;28;20033;-77
2022/09/04 07:53:02;;;;;;;1.50;1.40;;;23.10;68.50;;;;;;4994272;28;20034;-78
2022/09/04 07:55:42;;;;;;;3.97;1.50;;;23.20;68.60;;;;;;5015585;28;20140;-77
2022/09/04 07:58:30;;;;;;;4.40;1.25;;;23.10;68.60;;;;;;4998789;28;20041;-78
2022/09/04 08:01:02;;;;;;;8.27;1.15;;;23.10;68.70;;;;;;5052925;28;20032;-78
2022/09/04 08:03:39;;;;;;;4.37;1.50;;;23.10;68.70;;;;;;5053417;28;20409;-77
2022/09/04 08:06:12;;;;;;;2.38;1.23;;;23.20;68.70;;;;;;5051997;28;20306;-77
2022/09/04 08:09:16;;;;;;;5.38;1.40;;;23.10;68.70;;;;;;5052970;28;20104;-77
2022/09/04 08:12:00;;;;;;;2.45;1.33;;;23.10;68.60;;;;;;5052930;28;20047;-78
2022/09/04 08:14:31;;;;;;;3.40;1.20;;;23.10;68.60;;;;;;5036060;28;20024;-78
2022/09/04 08:17:24;;;;;;;2.87;1.30;;;23.10;68.70;;;;;;5052892;28;20075;-78
2022/09/04 08:20:11;;;;;;;3.65;1.60;;;23.10;68.70;;;;;;5052750;28;20427;-77
2022/09/04 08:22:52;;;;;;;2.90;1.20;;;23.10;68.60;;;;;;5051477;28;20025;-77
2022/09/04 08:25:20;;;;;;;4.32;1.55;;;23.10;68.70;;;;;;5051570;28;20052;-78
2022/09/04 08:28:33;;;;;;;3.08;1.60;;;23.10;68.70;;;;;;5056080;28;20024;-78
2022/09/04 08:31:06;;;;;;;;;;;23.10;68.60;;;;;;5060697;28;20044;-77
2022/09/04 08:34:06;;;;;;;1.98;1.10;;;23.10;68.70;;;;;;5071338;28;19904;-77
2022/09/04 08:36:47;;;;;;;3.55;1.92;;;23.10;69.80;;;;;;5071290;28;20488;-78
2022/09/04 08:39:26;;;;;;;2.95;1.55;;;23.10;68.70;;;;;;5071063;28;20070;-78
2022/09/04 08:42:30;;;;;;;4.47;1.40;;;23.10;68.70;;;;;;5052219;28;20377;-78
2022/09/04 08:45:16;;;;;;;3.80;1.30;;;23.20;68.70;;;;;;5052439;28;20045;-78
2022/09/04 08:48:06;;;;;;;4.47;1.45;;;23.10;68.60;;;;;;5063728;28;20049;-75
2022/09/04 08:50:51;;;;;;;3.00;1.48;;;23.10;68.50;;;;;;5071294;28;20395;-74
2022/09/04 08:53:34;;;;;;;5.93;1.70;;;23.10;67.10;;;;;;5072457;28;20112;-75
2022/09/04 08:56:08;;;;;;;1.77;1.30;;;23.10;67.30;;;;;;5070947;28;20032;-75
2022/09/04 08:58:57;;;;;;;3.17;1.80;;;23.10;67.70;;;;;;5055086;28;20048;-74
2022/09/04 09:01:31;;;;;;;4.35;1.65;;;23.10;67.70;;;;;;5072074;28;20095;-75
2022/09/04 09:04:21;;;;;;;3.90;2.47;;;23.10;67.90;;;;;;5075996;28;20020;-72
2022/09/04 09:07:06;;;;;;;3.97;2.80;;;23.10;68.00;;;;;;5088716;28;20020;-74
2022/09/04 09:09:46;;;;;;;4.20;2.90;;;23.10;68.00;;;;;;5055869;28;20093;-73
2022/09/04 09:12:50;;;;;;;7.85;3.63;;;23.10;68.00;;;;;;5089652;28;20099;-73
2022/09/04 09:15:36;;;;;;;6.88;3.22;;;23.10;68.10;;;;;;5088893;28;20047;-75
2022/09/04 09:18:25;;;;;;;3.90;3.00;;;23.10;68.40;;;;;;5089545;28;20021;-74
2022/09/04 09:21:09;;;;;;;13.80;5.18;;;23.20;68.40;;;;;;5080542;28;20051;-73
2022/09/04 09:23:52;;;;;;;17.65;5.72;;;23.20;68.80;;;;;;5088509;28;20129;-73
2022/09/04 09:26:29;;;;;;;17.98;5.60;;;23.20;69.20;;;;;;5088609;28;20509;-73
2022/09/04 09:29:07;;;;;;;17.20;5.40;;;23.20;69.10;;;;;;5068038;28;20043;-74
2022/09/04 09:31:37;;;;;;;18.40;6.45;;;23.20;69.20;;;;;;5069368;28;20047;-73
2022/09/04 09:34:13;;;;;;;11.15;5.30;;;23.20;69.10;;;;;;5069252;28;20024;-73
2022/09/04 09:37:07;;;;;;;18.17;5.60;;;23.20;69.10;;;;;;5068199;28;20024;-75
2022/09/04 09:39:50;;;;;;;15.65;5.40;;;23.20;69.10;;;;;;5067743;28;20183;-75
2022/09/04 09:42:22;;;;;;;12.45;5.50;;;23.20;69.10;;;;;;5068037;28;20108;-75
2022/09/04 09:45:20;;;;;;;11.10;5.10;;;23.20;69.10;;;;;;5069350;28;20033;-75
2022/09/04 09:47:58;;;;;;;13.55;4.75;;;23.20;69.10;;;;;;5024598;28;20079;-74
2022/09/04 09:50:45;;;;;;;11.52;5.30;;;23.20;69.10;;;;;;5068218;28;20067;-73
2022/09/04 09:53:36;;;;;;;13.00;5.38;;;23.20;69.10;;;;;;5069420;28;20031;-73
2022/09/04 09:56:13;;;;;;;9.50;4.65;;;23.20;69.00;;;;;;5075718;28;20032;-78
2022/09/04 09:58:51;;;;;;;11.07;5.35;;;23.30;68.70;;;;;;5089424;28;20024;-78
2022/09/04 10:01:42;;;;;;;12.70;4.35;;;23.50;68.00;;;;;;5089176;28;20081;-78
2022/09/04 10:04:39;;;;;;;12.82;4.68;;;23.60;67.40;;;;;;5089099;28;20095;-77
2022/09/04 10:07:36;;;;;;;15.25;5.57;;;23.70;67.30;;;;;;5088089;28;20095;-77
2022/09/04 10:10:33;;;;;;;8.65;4.32;;;23.80;66.90;;;;;;5088984;28;20028;-77
2022/09/04 10:13:18;;;;;;;8.63;4.30;;;23.80;66.70;;;;;;5089086;28;20024;-77
2022/09/04 10:16:01;;;;;;;14.07;4.38;;;23.90;66.50;;;;;;5073898;28;20407;-76
2022/09/04 10:18:36;;;;;;;10.07;4.47;;;24.00;66.30;;;;;;5091405;28;20027;-77
2022/09/04 10:21:39;;;;;;;10.05;4.45;;;24.00;66.20;;;;;;5092592;28;20024;-79
2022/09/04 10:24:14;;;;;;;;;;;24.00;66.00;;;;;;5092128;28;20139;-79
2022/09/04 10:27:12;;;;;;;8.45;3.67;;;24.10;65.80;;;;;;5108730;28;19908;-79
2022/09/04 10:29:41;;;;;;;7.95;3.90;;;24.10;65.40;;;;;;5049523;28;20048;-79
2022/09/04 10:32:33;;;;;;;12.38;4.07;;;24.20;65.30;;;;;;5033109;28;20040;-79
2022/09/04 10:35:08;;;;;;;7.22;3.70;;;24.20;65.20;;;;;;5016419;28;20069;-80
2022/09/04 10:37:39;;;;;;;8.13;3.42;;;24.20;65.10;;;;;;5049799;28;20033;-79
2022/09/04 10:40:37;;;;;;;9.97;4.13;;;24.30;64.90;;;;;;5045571;28;20525;-79
2022/09/04 10:43:31;;;;;;;8.93;3.35;;;24.30;64.60;;;;;;5033219;28;20436;-80
2022/09/04 10:46:01;;;;;;;8.73;4.03;;;24.30;64.60;;;;;;5032644;28;20091;-79
2022/09/04 10:48:50;;;;;;;6.55;3.40;;;24.40;64.50;;;;;;5016628;28;20064;-80
2022/09/04 10:51:34;;;;;;;9.88;4.20;;;24.40;64.40;;;;;;5049494;28;20065;-80
2022/09/04 10:54:15;;;;;;;6.30;3.45;;;24.40;64.30;;;;;;5049528;28;20029;-80
2022/09/04 10:56:48;;;;;;;8.45;3.67;;;24.40;64.20;;;;;;5049330;28;20060;-79
2022/09/04 10:59:29;;;;;;;;;;;24.40;64.10;;;;;;5033095;28;20041;-80
2022/09/04 11:02:11;;;;;;;7.68;3.33;;;24.50;64.00;;;;;;5049037;28;19915;-80
2022/09/04 11:04:44;;;;;;;;;;;24.50;64.00;;;;;;5034707;28;20568;-80
2022/09/04 11:07:36;;;;;;;6.18;3.65;;;24.50;63.90;;;;;;5082151;28;20298;-80
2022/09/04 11:10:16;;;;;;;7.63;3.35;;;24.50;63.80;;;;;;5091697;28;20016;-81
2022/09/04 11:12:54;;;;;;;5.70;3.10;;;24.50;63.70;;;;;;5091702;28;20036;-80
2022/09/04 11:15:29;;;;;;;5.72;3.17;;;24.60;63.70;;;;;;5073974;28;20513;-79
2022/09/04 11:18:12;;;;;;;5.68;3.22;;;24.60;63.70;;;;;;5091988;28;20070;-79
2022/09/04 11:21:26;;;;;;;7.00;3.17;;;24.60;63.50;;;;;;5091402;28;20045;-79
2022/09/04 11:23:57;;;;;;;;;;;24.60;63.40;;;;;;5046277;28;20036;-78
2022/09/04 11:26:53;;;;;;;3.67;2.85;;;24.60;63.40;;;;;;5091037;28;19904;-79
2022/09/04 11:29:25;;;;;;;7.50;3.03;;;24.60;63.40;;;;;;5091634;28;20022;-79
2022/09/04 11:32:23;;;;;;;6.57;3.05;;;24.60;63.40;;;;;;5091378;28;20027;-79
2022/09/04 11:35:18;;;;;;;6.55;2.78;;;24.60;63.30;;;;;;5090619;28;20043;-79
2022/09/04 11:37:55;;;;;;;5.28;2.85;;;24.60;63.20;;;;;;5091418;28;20028;-79
2022/09/04 11:40:27;;;;;;;5.05;2.95;;;24.60;63.20;;;;;;5084523;28;20031;-81
2022/09/04 11:43:09;;;;;;;5.55;3.00;;;24.60;63.40;;;;;;5070890;28;20036;-81
2022/09/04 11:45:47;;;;;;;4.15;2.70;;;24.60;63.30;;;;;;5054490;28;20507;-79
2022/09/04 11:48:33;;;;;;;4.50;2.97;;;24.60;63.20;;;;;;5069442;28;20045;-79
2022/09/04 11:51:39;;;;;;;5.28;2.67;;;24.60;63.20;;;;;;5085840;28;20020;-80
2022/09/04 11:54:17;;;;;;;5.50;2.90;;;24.70;63.20;;;;;;5076777;28;20032;-78
2022/09/04 11:56:51;;;;;;;5.53;2.67;;;24.70;63.10;;;;;;5091898;28;20028;-78
2022/09/04 11:59:42;;;;;;;6.32;2.65;;;24.70;63.10;;;;;;5091058;28;20020;-78
2022/09/04 12:02:16;;;;;;;5.20;2.40;;;24.70;63.20;;;;;;5089365;28;20016;-80
2022/09/04 12:05:02;;;;;;;5.55;2.67;;;24.70;63.10;;;;;;5090439;28;20020;-80
2022/09/04 12:07:49;;;;;;;4.97;2.75;;;24.70;63.00;;;;;;5072586;28;20024;-81
2022/09/04 12:10:37;;;;;;;4.55;2.45;;;24.70;62.90;;;;;;5077168;28;20123;-80
2022/09/04 12:13:05;;;;;;;4.30;2.25;;;24.70;62.90;;;;;;5089289;28;20024;-81
2022/09/04 12:16:01;;;;;;;3.33;2.10;;;24.70;62.90;;;;;;5089096;28;20055;-80
2022/09/04 12:18:43;;;;;;;4.18;2.58;;;24.70;62.80;;;;;;5090134;28;20031;-81
2022/09/04 12:21:54;;;;;;;3.28;2.42;;;24.70;62.90;;;;;;5088997;28;20026;-79
2022/09/04 12:24:28;;;;;;;4.63;2.75;;;24.70;63.00;;;;;;5007951;28;20054;-78
2022/09/04 12:27:24;;;;;;;5.63;2.25;;;24.70;62.90;;;;;;4992135;28;20129;-79
2022/09/04 12:30:19;;;;;;;5.35;2.63;;;24.70;62.90;;;;;;4987500;28;20204;-78
2022/09/04 12:33:18;;;;;;;6.28;2.67;;;24.70;62.70;;;;;;4993834;28;20036;-78
2022/09/04 12:35:59;;;;;;;4.07;2.55;;;24.70;62.80;;;;;;4937263;29;20130;-79
2022/09/04 12:38:37;;;;;;;6.63;2.78;;;24.70;62.80;;;;;;4950756;29;20046;-77
2022/09/04 12:41:05;;;;;;;4.88;2.50;;;24.70;62.70;;;;;;4951782;28;20169;-76
2022/09/04 12:43:41;;;;;;;5.35;2.53;;;24.70;62.80;;;;;;4952419;29;20027;-76
2022/09/04 12:46:54;;;;;;;3.85;2.50;;;24.70;62.80;;;;;;4952046;29;20031;-71
2022/09/04 12:49:29;;;;;;;;;;;24.70;63.00;;;;;;4926651;28;20050;-75
2022/09/04 12:52:24;;;;;;;9.68;2.60;;;24.70;62.80;;;;;;4956081;28;19952;-75
2022/09/04 12:54:53;;;;;;;5.20;2.33;;;24.60;63.00;;;;;;4950898;28;20170;-73
2022/09/04 12:57:29;;;;;;;3.58;2.15;;;24.60;63.20;;;;;;5006878;28;20048;-73
2022/09/04 13:00:07;;;;;;;3.47;2.20;;;24.50;63.40;;;;;;5007063;28;20049;-73
2022/09/04 13:02:51;;;;;;;5.07;2.17;;;24.50;63.60;;;;;;4991386;28;20029;-72
2022/09/04 13:05:32;;;;;;;4.07;2.42;;;24.40;63.60;;;;;;5001020;28;20022;-73
2022/09/04 13:08:38;;;;;;;3.53;2.30;;;24.40;63.70;;;;;;5007617;28;20026;-72
2022/09/04 13:11:30;;;;;;;3.15;2.08;;;24.40;63.80;;;;;;5007498;28;20129;-74
2022/09/04 13:14:23;;;;;;;3.08;2.13;;;24.40;63.80;;;;;;5086735;28;20153;-73
2022/09/04 13:17:00;;;;;;;;;;;24.30;63.70;;;;;;5068468;28;20559;-73
2022/09/04 13:19:47;;;;;;;6.15;2.50;;;24.40;63.70;;;;;;5081530;28;19991;-72
2022/09/04 13:22:35;;;;;;;3.00;2.28;;;24.30;63.80;;;;;;5087787;28;20107;-72
2022/09/04 13:25:16;;;;;;;4.45;2.50;;;24.30;63.90;;;;;;5087280;28;20062;-72
2022/09/04 13:27:57;;;;;;;4.53;1.92;;;24.30;64.00;;;;;;5089057;28;20089;-72
2022/09/04 13:30:24;;;;;;;4.32;2.15;;;24.30;63.90;;;;;;5087684;28;20120;-70
2022/09/04 13:33:02;;;;;;;4.18;2.05;;;24.30;63.90;;;;;;5071066;28;20067;-72
2022/09/04 13:36:18;;;;;;;5.18;2.67;;;24.30;64.00;;;;;;5087904;28;20028;-72
2022/09/04 13:39:02;;;;;;;6.85;3.10;;;24.30;64.20;;;;;;5056321;28;20047;-72
2022/09/04 13:41:42;;;;;;;6.55;3.17;;;24.30;64.30;;;;;;5084261;28;20056;-72
2022/09/04 13:44:48;;;;;;;6.38;3.22;;;24.30;64.50;;;;;;5088027;28;20322;-72
2022/09/04 13:47:22;;;;;;;5.90;3.17;;;24.30;64.50;;;;;;5082928;28;20040;-71
2022/09/04 13:49:54;;;;;;;7.30;3.25;;;24.40;64.60;;;;;;5091540;28;20514;-72
2022/09/04 13:52:26;;;;;;;6.78;3.47;;;24.30;64.60;;;;;;5075711;28;20103;-72
2022/09/04 13:55:04;;;;;;;5.05;3.20;;;24.40;64.60;;;;;;5093348;28;20036;-72
2022/09/04 13:57:34;;;;;;;6.10;3.15;;;24.30;64.50;;;;;;5075924;28;20386;-71
2022/09/04 14:00:06;;;;;;;5.72;3.35;;;24.30;64.60;;;;;;5074440;28;20032;-72
2022/09/04 14:02:35;;;;;;;5.50;3.33;;;24.30;64.60;;;;;;5075489;28;20047;-72
2022/09/04 14:05:08;;;;;;;5.25;2.90;;;24.30;64.60;;;;;;5074369;28;20032;-72
2022/09/04 14:07:35;;;;;;;6.68;3.40;;;24.30;64.60;;;;;;5074797;28;20020;-72
2022/09/04 14:10:07;;;;;;;8.00;4.13;;;24.30;64.60;;;;;;5057547;28;20032;-72
2022/09/04 14:12:45;;;;;;;6.25;3.60;;;24.30;64.60;;;;;;5074351;28;20023;-71